Lakefield, Canada
Current Conditions -  °F | °C
As of 9:00 PM on Thursday 20 Nov 2014 (Local Time) from CYPQ Reporting Station
Clear Clear  
Wind Chill: -13°   Ceiling: Unl
Heat Index: -7°   Visibility: 9mi
Dew Point: -11°   Wind: 8mph
Humidity: 74%   Direction: 240°WSW
Pressure: 29.88"   Gusts: 18mph
Location:  44.43°N, 78.27°W
Report Text: CYPQ 210200Z AUTO 24007G16KT 9SM CLR M07/M11 A2988 RMK SLP129
Loading
Personal Weather Stations






























Interactive Weather Map New forecast layout! Learn more

10-Day Weather Forecast

Advertisements
Track Severe Weather on mobile